METAR Data
IDs: Format: Raw Decoded Include TAF

Data at: 0725 UTC 01 Aug 2021

FAOR 010700Z 21007KT CAVOK 14/M05 Q1034 NOSIG